createdAt,value
2022-11-19T00:01:18.549Z,100777.28
2022-11-19T00:03:49.896Z,100777.28
2022-11-19T00:06:20.913Z,100779.56
2022-11-19T00:08:47.427Z,100779.56
2022-11-19T00:11:16.224Z,100781.09
2022-11-19T00:13:43.215Z,100780.84
2022-11-19T00:16:13.997Z,100783.25
2022-11-19T00:18:41.077Z,100781.31
2022-11-19T00:21:10.062Z,100782.84
2022-11-19T00:23:36.851Z,100781.81
2022-11-19T00:26:14.424Z,100773.31
2022-11-19T00:28:41.768Z,100769.63
2022-11-19T00:31:11.846Z,100773.69
2022-11-19T00:33:39.563Z,100782.84
2022-11-19T00:36:08.124Z,100783.59
2022-11-19T00:38:34.712Z,100774.91
2022-11-19T00:41:01.255Z,100776.94
2022-11-19T00:43:46.392Z,100781.75
2022-11-19T00:46:30.273Z,100790.63
2022-11-19T00:48:59.114Z,100792.00
2022-11-19T00:51:28.424Z,100787.56
2022-11-19T00:53:55.036Z,100789.84
2022-11-19T00:56:23.345Z,100797.16
2022-11-19T00:58:50.271Z,100793.59
2022-11-19T01:01:18.140Z,100794.34
2022-11-19T01:03:48.055Z,100800.06
2022-11-19T01:06:19.125Z,100802.34
2022-11-19T01:08:47.143Z,100805.50
2022-11-19T01:11:17.042Z,100806.53
2022-11-19T01:13:43.728Z,100811.63
2022-11-19T01:16:31.376Z,100804.75
2022-11-19T01:18:58.265Z,100802.97
2022-11-19T01:21:27.007Z,100805.38
2022-11-19T01:23:53.519Z,100814.63
2022-11-19T01:26:20.288Z,100802.66
2022-11-19T01:28:47.184Z,100805.09
2022-11-19T01:31:16.492Z,100805.09
2022-11-19T01:33:43.339Z,100792.25
2022-11-19T01:36:15.983Z,100799.09
2022-11-19T01:38:42.513Z,100803.31
2022-11-19T01:41:09.499Z,100798.97
2022-11-19T01:43:48.353Z,100803.16
2022-11-19T01:46:16.895Z,100802.28
2022-11-19T01:48:47.065Z,100803.78
2022-11-19T01:51:33.218Z,100799.59
2022-11-19T01:54:06.215Z,100802.91
2022-11-19T01:56:32.623Z,100809.63
2022-11-19T01:59:03.395Z,100816.38
2022-11-19T02:01:31.408Z,100810.25
2022-11-19T02:04:02.418Z,100811.78
2022-11-19T02:06:29.695Z,100815.94
2022-11-19T02:08:56.718Z,100821.78
2022-11-19T02:11:29.234Z,100814.91
2022-11-19T02:14:17.344Z,100808.81
2022-11-19T02:16:55.318Z,100801.66
2022-11-19T02:20:00.144Z,100805.59
2022-11-19T02:22:45.239Z,100806.06
2022-11-19T02:25:23.820Z,100808.59
2022-11-19T02:28:02.323Z,100805.03
2022-11-19T02:30:36.814Z,100805.03
2022-11-19T02:33:10.605Z,100810.38
2022-11-19T02:35:59.935Z,100806.81
2022-11-19T02:38:48.208Z,100818.47
2022-11-19T02:41:37.911Z,100819.72
2022-11-19T02:44:31.960Z,100818.84
2022-11-19T02:46:59.493Z,100831.41
2022-11-19T02:49:27.770Z,100821.06
2022-11-19T02:51:54.380Z,100825.25
2022-11-19T02:54:21.144Z,100826.91
2022-11-19T02:56:51.555Z,100830.06
2022-11-19T02:59:50.683Z,100822.44
2022-11-19T03:02:37.129Z,100814.06
2022-11-19T03:05:07.554Z,100824.38
2022-11-19T03:07:35.470Z,100822.72
2022-11-19T03:10:05.513Z,100834.53
2022-11-19T03:12:54.204Z,100836.16
2022-11-19T03:15:52.839Z,100832.16
2022-11-19T03:18:23.404Z,100840.78
2022-11-19T03:20:56.444Z,100837.38
2022-11-19T03:23:27.469Z,100842.31
2022-11-19T03:25:56.938Z,100843.03
2022-11-19T03:28:26.940Z,100848.28
2022-11-19T03:30:55.557Z,100851.72
2022-11-19T03:33:25.730Z,100850.94
2022-11-19T03:35:55.131Z,100854.25
2022-11-19T03:38:28.786Z,100859.31
2022-11-19T03:40:55.780Z,100857.69
2022-11-19T03:43:25.969Z,100864.22
2022-11-19T03:45:52.953Z,100865.88
2022-11-19T03:48:21.128Z,100862.31
2022-11-19T03:50:50.786Z,100875.00
2022-11-19T03:53:17.488Z,100874.72
2022-11-19T03:55:47.385Z,100878.03
2022-11-19T03:58:13.891Z,100881.94
2022-11-19T04:00:40.303Z,100879.25
2022-11-19T04:03:06.709Z,100879.13
2022-11-19T04:05:33.173Z,100873.13
2022-11-19T04:07:59.566Z,100872.41
2022-11-19T04:10:25.964Z,100867.91
2022-11-19T04:12:52.401Z,100868.66
2022-11-19T04:15:18.880Z,100868.66
2022-11-19T04:17:45.300Z,100859.13
2022-11-19T04:20:11.824Z,100860.63
2022-11-19T04:22:38.264Z,100863.78
2022-11-19T04:25:05.104Z,100863.53
2022-11-19T04:27:31.657Z,100868.91
2022-11-19T04:29:58.074Z,100867.59
2022-11-19T04:32:24.531Z,100863.28
2022-11-19T04:34:50.945Z,100860.75
2022-11-19T04:37:17.356Z,100851.34
2022-11-19T04:39:43.755Z,100851.03
2022-11-19T04:42:10.176Z,100853.28
2022-11-19T04:44:36.706Z,100854.06
2022-11-19T04:47:03.129Z,100856.44
2022-11-19T04:49:29.586Z,100859.75
2022-11-19T04:51:55.996Z,100854.66
2022-11-19T04:54:22.415Z,100855.56
2022-11-19T04:56:48.805Z,100857.94
2022-11-19T04:59:15.327Z,100853.50
2022-11-19T05:01:41.808Z,100860.97
2022-11-19T05:04:09.681Z,100861.84
2022-11-19T05:06:36.090Z,100870.81
2022-11-19T05:09:02.528Z,100874.69
2022-11-19T05:11:28.951Z,100874.69
2022-11-19T05:13:55.401Z,100872.03
2022-11-19T05:16:21.804Z,100882.31
2022-11-19T05:18:48.318Z,100882.16
2022-11-19T05:21:14.730Z,100882.31
2022-11-19T05:23:41.142Z,100879.63
2022-11-19T05:26:07.547Z,100873.66
2022-11-19T05:28:38.962Z,100873.66
2022-11-19T05:31:06.956Z,100892.19
2022-11-19T05:33:34.426Z,100888.75
2022-11-19T05:36:01.864Z,100884.88
2022-11-19T05:38:28.276Z,100881.28
2022-11-19T05:40:54.737Z,100886.22
2022-11-19T05:43:21.120Z,100880.41
2022-11-19T05:45:47.528Z,100878.63
2022-11-19T05:48:13.996Z,100878.81
2022-11-19T05:50:43.617Z,100872.66
2022-11-19T05:53:10.144Z,100875.81
2022-11-19T05:55:36.667Z,100877.31
2022-11-19T05:58:03.246Z,100888.22
2022-11-19T06:00:29.717Z,100883.88
2022-11-19T06:02:56.346Z,100885.53
2022-11-19T06:05:22.825Z,100889.72
2022-11-19T06:07:49.277Z,100895.69
2022-11-19T06:10:15.730Z,100901.63
2022-11-19T06:12:45.816Z,100899.25
2022-11-19T06:15:12.787Z,100898.50
2022-11-19T06:17:39.198Z,100899.09
2022-11-19T06:20:08.695Z,100893.88
2022-11-19T06:22:36.291Z,100895.69
2022-11-19T06:25:04.508Z,100890.59
2022-11-19T06:27:31.057Z,100895.69
2022-11-19T06:29:57.535Z,100891.34
2022-11-19T06:32:24.095Z,100903.28
2022-11-19T06:34:50.538Z,100900.59
2022-11-19T06:37:16.931Z,100910.88
2022-11-19T06:39:43.344Z,100908.63
2022-11-19T06:42:28.373Z,100916.53
2022-11-19T06:44:54.834Z,100920.13
2022-11-19T06:47:21.244Z,100927.88
2022-11-19T06:49:48.657Z,100931.44
2022-11-19T06:52:15.120Z,100931.44
2022-11-19T06:54:43.265Z,100936.38
2022-11-19T06:57:10.137Z,100940.09
2022-11-19T06:59:38.815Z,100936.06
2022-11-19T07:02:05.712Z,100937.72
2022-11-19T07:04:32.251Z,100932.94
2022-11-19T07:06:58.760Z,100928.78
2022-11-19T07:09:25.214Z,100923.84
2022-11-19T07:11:51.609Z,100926.38
2022-11-19T07:14:18.042Z,100929.94
2022-11-19T07:16:44.453Z,100929.34
2022-11-19T07:19:10.876Z,100927.22
2022-11-19T07:21:37.367Z,100930.22
2022-11-19T07:24:06.476Z,100930.66
2022-11-19T07:26:34.061Z,100920.03
2022-11-19T07:29:05.554Z,100921.25
2022-11-19T07:31:33.065Z,100925.09
2022-11-19T07:33:59.780Z,100925.69
2022-11-19T07:36:26.234Z,100928.78
2022-11-19T07:38:52.671Z,100920.69
2022-11-19T07:41:38.246Z,100922.03
2022-11-19T07:44:04.861Z,100928.28
2022-11-19T07:46:31.279Z,100922.44
2022-11-19T07:48:58.458Z,100929.44
2022-11-19T07:51:25.449Z,100925.41
2022-11-19T07:53:51.937Z,100918.81
2022-11-19T07:56:18.497Z,100920.03
2022-11-19T07:58:44.931Z,100927.03
2022-11-19T08:01:20.254Z,100926.53
2022-11-19T08:03:53.284Z,100934.44
2022-11-19T08:06:22.894Z,100927.25
2022-11-19T08:08:49.313Z,100921.84
2022-11-19T08:11:17.293Z,100914.94
2022-11-19T08:13:43.785Z,100908.75
2022-11-19T08:16:35.561Z,100909.19
2022-11-19T08:19:13.931Z,100916.59
2022-11-19T08:21:43.066Z,100910.28
2022-11-19T08:24:10.272Z,100908.03
2022-11-19T08:26:37.609Z,100907.19
2022-11-19T08:29:04.787Z,100903.31
2022-11-19T08:31:31.208Z,100901.28
2022-11-19T08:33:57.634Z,100901.44
2022-11-19T08:36:24.096Z,100912.63
2022-11-19T08:38:50.499Z,100900.75
2022-11-19T08:41:35.599Z,100897.06
2022-11-19T08:44:02.649Z,100899.16
2022-11-19T08:46:29.149Z,100897.91
2022-11-19T08:48:55.646Z,100895.91
2022-11-19T08:51:22.059Z,100896.56
2022-11-19T08:53:48.480Z,100898.91
2022-11-19T08:56:18.046Z,100893.44
2022-11-19T08:58:45.045Z,100901.88
2022-11-19T09:01:12.808Z,100904.06
2022-11-19T09:03:39.675Z,100897.75
2022-11-19T09:06:06.868Z,100904.88
2022-11-19T09:08:33.643Z,100904.00
2022-11-19T09:11:00.622Z,100903.50
2022-11-19T09:13:27.107Z,100903.13
2022-11-19T09:15:53.653Z,100918.66
2022-11-19T09:18:20.099Z,100910.53
2022-11-19T09:20:46.560Z,100909.66
2022-11-19T09:23:13.003Z,100916.03
2022-11-19T09:25:39.451Z,100916.56
2022-11-19T09:28:05.845Z,100909.31
2022-11-19T09:30:32.240Z,100917.22
2022-11-19T09:32:59.976Z,100913.38
2022-11-19T09:35:26.394Z,100919.00
2022-11-19T09:37:52.834Z,100910.59
2022-11-19T09:40:20.764Z,100912.00
2022-11-19T09:43:13.940Z,100908.81
2022-11-19T09:45:58.863Z,100908.31
2022-11-19T09:48:34.211Z,100911.25
2022-11-19T09:51:08.361Z,100910.72
2022-11-19T09:53:52.601Z,100915.34
2022-11-19T09:56:26.832Z,100920.69
2022-11-19T09:58:54.671Z,100916.72
2022-11-19T10:01:21.470Z,100919.03
2022-11-19T10:03:53.617Z,100918.63
2022-11-19T10:06:26.526Z,100904.75
2022-11-19T10:09:03.918Z,100905.22
2022-11-19T10:11:52.629Z,100907.28
2022-11-19T10:14:49.471Z,100910.97
2022-11-19T10:17:33.337Z,100909.78
2022-11-19T10:20:14.972Z,100904.94
2022-11-19T10:23:08.731Z,100902.13
2022-11-19T10:25:44.878Z,100908.47
2022-11-19T10:28:15.108Z,100900.34
2022-11-19T10:30:49.852Z,100899.03
2022-11-19T10:33:36.418Z,100893.41
2022-11-19T10:36:08.148Z,100892.91
2022-11-19T10:38:41.559Z,100886.50
2022-11-19T10:41:36.093Z,100883.84
2022-11-19T10:44:40.138Z,100877.31
2022-11-19T10:47:16.584Z,100870.56
2022-11-19T10:49:43.588Z,100864.94
2022-11-19T10:52:37.940Z,100866.06
2022-11-19T10:55:25.734Z,100855.44
2022-11-19T10:58:01.188Z,100858.16
2022-11-19T11:00:27.585Z,100855.06
2022-11-19T11:02:58.954Z,100855.41
2022-11-19T11:05:25.445Z,100848.63
2022-11-19T11:07:54.575Z,100851.56
2022-11-19T11:10:42.630Z,100850.25
2022-11-19T11:13:43.017Z,100850.38
2022-11-19T11:16:17.005Z,100845.38
2022-11-19T11:18:43.976Z,100843.72
2022-11-19T11:21:24.719Z,100839.63
2022-11-19T11:23:53.374Z,100840.00
2022-11-19T11:26:25.200Z,100839.56
2022-11-19T11:29:00.999Z,100833.69
2022-11-19T11:31:41.990Z,100829.34
2022-11-19T11:34:38.422Z,100827.03
2022-11-19T11:37:06.105Z,100830.72
2022-11-19T11:39:37.898Z,100830.97
2022-11-19T11:42:06.576Z,100824.31
2022-11-19T11:44:35.874Z,100827.09
2022-11-19T11:47:12.767Z,100820.31
2022-11-19T11:49:41.227Z,100818.47
2022-11-19T11:52:28.498Z,100816.91
2022-11-19T11:54:57.333Z,100809.47
2022-11-19T11:57:37.773Z,100805.47
2022-11-19T12:00:27.198Z,100799.47
2022-11-19T12:03:06.615Z,100793.84
2022-11-19T12:06:04.037Z,100798.97
2022-11-19T12:09:09.548Z,100792.53
2022-11-19T12:11:55.045Z,100795.84
2022-11-19T12:14:36.538Z,100795.28
2022-11-19T12:17:51.055Z,100793.00
2022-11-19T12:20:22.498Z,100793.63
2022-11-19T12:23:02.216Z,100796.22
2022-11-19T12:25:40.527Z,100787.00
2022-11-19T12:28:41.038Z,100786.75
2022-11-19T12:31:32.334Z,100786.56
2022-11-19T12:34:28.615Z,100787.69
2022-11-19T12:36:57.840Z,100790.56
2022-11-19T12:39:45.627Z,100787.69
2022-11-19T12:42:38.439Z,100792.25
2022-11-19T12:45:30.528Z,100784.38
2022-11-19T12:48:44.896Z,100788.50
2022-11-19T12:51:21.524Z,100780.25
2022-11-19T12:53:59.678Z,100775.56
2022-11-19T12:56:35.694Z,100775.56
2022-11-19T12:59:28.542Z,100783.47
2022-11-19T13:01:55.430Z,100782.03
2022-11-19T13:04:27.805Z,100776.81
2022-11-19T13:07:00.667Z,100774.25
2022-11-19T13:09:40.921Z,100775.91
2022-11-19T13:12:10.004Z,100774.25
2022-11-19T13:14:41.481Z,100772.91
2022-11-19T13:17:17.724Z,100782.25
2022-11-19T13:19:46.693Z,100778.91
2022-11-19T13:22:18.929Z,100787.25
2022-11-19T13:25:07.488Z,100777.47
2022-11-19T13:27:34.408Z,100776.81
2022-11-19T13:30:04.048Z,100769.13
2022-11-19T13:32:39.362Z,100776.59
2022-11-19T13:35:13.937Z,100778.38
2022-11-19T13:37:58.835Z,100769.56
2022-11-19T13:40:35.836Z,100772.91
2022-11-19T13:43:36.719Z,100771.13
2022-11-19T13:46:47.524Z,100763.22
2022-11-19T13:49:26.417Z,100761.34
2022-11-19T13:52:03.812Z,100761.47
2022-11-19T13:54:35.695Z,100756.13
2022-11-19T13:57:03.196Z,100756.25
2022-11-19T13:59:46.593Z,100751.91
2022-11-19T14:02:46.951Z,100757.81
2022-11-19T14:05:49.897Z,100749.34
2022-11-19T14:08:38.015Z,100752.13
2022-11-19T14:11:22.618Z,100745.22
2022-11-19T14:14:01.879Z,100737.56
2022-11-19T14:17:08.645Z,100743.44
2022-11-19T14:20:11.424Z,100736.56
2022-11-19T14:23:01.116Z,100744.91
2022-11-19T14:26:00.332Z,100743.97
2022-11-19T14:28:50.574Z,100745.78
2022-11-19T14:31:18.918Z,100748.34
2022-11-19T14:33:48.291Z,100751.66
2022-11-19T14:36:22.334Z,100749.00
2022-11-19T14:38:56.423Z,100753.22
2022-11-19T14:41:27.936Z,100740.22
2022-11-19T14:44:10.900Z,100742.66
2022-11-19T14:46:39.688Z,100746.69
2022-11-19T14:49:16.918Z,100732.75
2022-11-19T14:51:43.426Z,100741.00
2022-11-19T14:54:15.935Z,100727.88
2022-11-19T14:56:45.891Z,100748.22
2022-11-19T14:59:15.283Z,100743.91
2022-11-19T15:01:52.693Z,100740.09
2022-11-19T15:04:20.930Z,100743.53
2022-11-19T15:06:47.571Z,100738.31
2022-11-19T15:09:14.152Z,100737.09
2022-11-19T15:11:55.785Z,100740.31
2022-11-19T15:14:28.193Z,100732.31
2022-11-19T15:16:56.017Z,100732.09
2022-11-19T15:19:42.690Z,100725.88
2022-11-19T15:22:23.649Z,100724.75
2022-11-19T15:24:53.043Z,100718.50
2022-11-19T15:27:39.052Z,100724.28
2022-11-19T15:30:07.410Z,100722.28
2022-11-19T15:32:49.696Z,100719.50
2022-11-19T15:35:25.268Z,100724.25
2022-11-19T15:38:03.254Z,100724.03
2022-11-19T15:40:33.028Z,100713.47
2022-11-19T15:43:21.199Z,100723.59
2022-11-19T15:46:10.336Z,100715.69
2022-11-19T15:48:51.412Z,100716.22
2022-11-19T15:51:17.951Z,100717.00
2022-11-19T15:54:03.741Z,100711.69
2022-11-19T15:56:37.943Z,100710.78
2022-11-19T15:59:07.000Z,100708.91
2022-11-19T16:01:34.384Z,100711.19
2022-11-19T16:04:06.364Z,100712.75
2022-11-19T16:06:32.825Z,100708.19
2022-11-19T16:09:01.101Z,100709.75
2022-11-19T16:11:50.821Z,100715.50
2022-11-19T16:14:41.847Z,100710.94
2022-11-19T16:17:43.441Z,100709.81
2022-11-19T16:20:24.953Z,100715.56
2022-11-19T16:23:04.116Z,100713.69
2022-11-19T16:25:31.744Z,100709.22
2022-11-19T16:28:00.787Z,100704.78
2022-11-19T16:30:29.663Z,100707.31
2022-11-19T16:32:58.094Z,100702.88
2022-11-19T16:35:27.359Z,100701.00
2022-11-19T16:37:54.543Z,100694.09
2022-11-19T16:40:21.653Z,100697.44
2022-11-19T16:42:52.122Z,100694.78
2022-11-19T16:45:21.992Z,100698.09
2022-11-19T16:48:08.893Z,100689.41
2022-11-19T16:50:37.552Z,100692.72
2022-11-19T16:53:06.750Z,100686.63
2022-11-19T16:55:36.057Z,100695.06
2022-11-19T16:58:10.338Z,100693.38
2022-11-19T17:00:37.381Z,100693.16
2022-11-19T17:03:29.062Z,100684.50
2022-11-19T17:05:56.403Z,100688.72
2022-11-19T17:08:28.643Z,100686.06
2022-11-19T17:11:40.163Z,100683.50
2022-11-19T17:14:50.055Z,100685.06
2022-11-19T17:17:39.931Z,100683.13
2022-11-19T17:20:30.549Z,100677.91
2022-11-19T17:22:57.099Z,100681.22
2022-11-19T17:25:23.988Z,100683.78
2022-11-19T17:27:56.391Z,100672.34
2022-11-19T17:30:27.171Z,100678.09
2022-11-19T17:32:57.184Z,100683.06
2022-11-19T17:35:43.720Z,100679.50
2022-11-19T17:38:23.731Z,100681.06
2022-11-19T17:40:52.387Z,100680.06
2022-11-19T17:43:53.588Z,100682.59
2022-11-19T17:46:20.546Z,100684.03
2022-11-19T17:48:48.216Z,100685.47
2022-11-19T17:51:17.005Z,100698.22
2022-11-19T17:53:43.424Z,100692.06
2022-11-19T17:56:27.270Z,100696.16
2022-11-19T17:58:54.737Z,100691.84
2022-11-19T18:01:21.530Z,100707.13
2022-11-19T18:03:48.325Z,100695.81
2022-11-19T18:06:16.893Z,100700.03
2022-11-19T18:08:43.777Z,100700.03
2022-11-19T18:11:13.202Z,100695.69
2022-11-19T18:13:40.569Z,100699.25
2022-11-19T18:16:15.569Z,100693.38
2022-11-19T18:18:42.068Z,100686.50
2022-11-19T18:21:11.317Z,100698.38
2022-11-19T18:23:38.247Z,100698.13
2022-11-19T18:26:04.851Z,100697.34
2022-11-19T18:28:31.251Z,100700.78
2022-11-19T18:30:57.952Z,100695.56
2022-11-19T18:33:24.360Z,100700.56
2022-11-19T18:35:50.799Z,100696.09
2022-11-19T18:38:17.224Z,100697.13
2022-11-19T18:40:43.695Z,100698.00
2022-11-19T18:43:28.689Z,100703.09
2022-11-19T18:45:55.113Z,100693.66
2022-11-19T18:48:21.518Z,100697.13
2022-11-19T18:50:47.937Z,100694.69
2022-11-19T18:53:14.338Z,100704.88
2022-11-19T18:55:40.750Z,100699.78
2022-11-19T18:58:07.181Z,100701.56
2022-11-19T19:00:33.860Z,100706.91
2022-11-19T19:03:00.672Z,100701.16
2022-11-19T19:05:27.084Z,100700.50
2022-11-19T19:07:53.786Z,100704.03
2022-11-19T19:10:20.202Z,100707.38
2022-11-19T19:12:46.587Z,100704.03
2022-11-19T19:15:13.209Z,100694.72
2022-11-19T19:17:39.655Z,100698.22
2022-11-19T19:20:06.533Z,100698.94
2022-11-19T19:22:32.929Z,100697.44
2022-11-19T19:24:59.374Z,100694.13
2022-11-19T19:27:25.947Z,100686.19
2022-11-19T19:29:52.364Z,100685.69
2022-11-19T19:32:18.809Z,100679.81
2022-11-19T19:34:45.204Z,100682.59
2022-11-19T19:37:11.670Z,100677.50
2022-11-19T19:39:38.121Z,100684.59
2022-11-19T19:42:04.572Z,100687.94
2022-11-19T19:44:31.004Z,100681.28
2022-11-19T19:46:57.432Z,100688.16
2022-11-19T19:49:24.263Z,100693.25
2022-11-19T19:51:50.956Z,100691.75
2022-11-19T19:54:17.389Z,100686.66
2022-11-19T19:56:43.811Z,100694.53
2022-11-19T19:59:12.054Z,100699.63
2022-11-19T20:01:38.555Z,100703.97
2022-11-19T20:04:10.170Z,100708.28
2022-11-19T20:06:41.450Z,100710.84
2022-11-19T20:09:09.510Z,100707.41
2022-11-19T20:11:36.449Z,100711.72
2022-11-19T20:14:02.942Z,100707.63
2022-11-19T20:16:31.247Z,100709.19
2022-11-19T20:18:59.493Z,100715.16
2022-11-19T20:21:28.459Z,100716.06
2022-11-19T20:23:55.402Z,100714.41
2022-11-19T20:26:24.070Z,100720.25
2022-11-19T20:28:55.079Z,100711.72
2022-11-19T20:31:21.515Z,100715.16
2022-11-19T20:33:52.862Z,100717.59
2022-11-19T20:36:19.320Z,100714.16
2022-11-19T20:38:48.589Z,100714.81
2022-11-19T20:41:34.752Z,100713.81
2022-11-19T20:44:20.476Z,100712.03
2022-11-19T20:46:48.255Z,100714.44
2022-11-19T20:49:17.667Z,100714.19
2022-11-19T20:51:44.622Z,100724.28
2022-11-19T20:54:11.777Z,100718.31
2022-11-19T20:56:39.085Z,100711.31
2022-11-19T20:59:06.056Z,100710.31
2022-11-19T21:01:33.310Z,100710.19
2022-11-19T21:03:59.976Z,100716.69
2022-11-19T21:06:26.453Z,100720.88
2022-11-19T21:08:53.066Z,100713.91
2022-11-19T21:11:19.683Z,100715.56
2022-11-19T21:13:46.075Z,100716.22
2022-11-19T21:16:14.064Z,100717.75
2022-11-19T21:18:42.546Z,100709.09
2022-11-19T21:21:10.662Z,100714.81
2022-11-19T21:23:39.226Z,100704.38
2022-11-19T21:26:16.704Z,100702.59
2022-11-19T21:28:47.582Z,100698.28
2022-11-19T21:31:15.313Z,100702.38
2022-11-19T21:33:41.843Z,100703.03
2022-11-19T21:36:08.552Z,100701.13
2022-11-19T21:38:35.834Z,100695.00
2022-11-19T21:41:02.401Z,100703.41
2022-11-19T21:43:30.141Z,100695.53
2022-11-19T21:45:57.307Z,100691.97
2022-11-19T21:48:24.748Z,100692.75
2022-11-19T21:50:51.496Z,100691.84
2022-11-19T21:53:18.650Z,100689.06
2022-11-19T21:55:45.765Z,100687.13
2022-11-19T21:58:13.956Z,100689.69
2022-11-19T22:00:40.830Z,100687.91
2022-11-19T22:03:07.670Z,100685.13
2022-11-19T22:05:34.131Z,100679.00
2022-11-19T22:08:01.181Z,100669.34
2022-11-19T22:10:28.176Z,100674.44
2022-11-19T22:12:54.614Z,100676.88
2022-11-19T22:15:21.050Z,100671.63
2022-11-19T22:17:47.435Z,100668.84
2022-11-19T22:20:13.884Z,100667.06
2022-11-19T22:22:44.945Z,100671.94
2022-11-19T22:25:12.543Z,100659.97
2022-11-19T22:27:39.068Z,100660.72
2022-11-19T22:30:06.498Z,100653.09
2022-11-19T22:32:33.134Z,100656.41
2022-11-19T22:34:59.557Z,100658.06
2022-11-19T22:37:25.975Z,100652.97
2022-11-19T22:39:52.468Z,100657.78
2022-11-19T22:42:18.861Z,100655.13
2022-11-19T22:44:45.308Z,100655.00
2022-11-19T22:47:11.730Z,100653.09
2022-11-19T22:49:38.129Z,100654.78
2022-11-19T22:52:04.671Z,100664.84
2022-11-19T22:54:31.075Z,100667.38
2022-11-19T22:56:57.466Z,100661.50
2022-11-19T22:59:23.910Z,100654.78
2022-11-19T23:01:50.364Z,100664.06
2022-11-19T23:04:16.869Z,100669.16
2022-11-19T23:06:43.300Z,100671.81
2022-11-19T23:09:09.765Z,100674.50
2022-11-19T23:11:54.857Z,100665.06
2022-11-19T23:14:21.309Z,100661.00
2022-11-19T23:16:47.834Z,100659.22
2022-11-19T23:19:14.903Z,100653.34
2022-11-19T23:21:41.502Z,100652.56
2022-11-19T23:24:09.532Z,100646.59
2022-11-19T23:26:36.291Z,100657.78
2022-11-19T23:29:02.795Z,100654.34
2022-11-19T23:31:31.317Z,100656.13
2022-11-19T23:33:59.509Z,100661.50
2022-11-19T23:36:29.440Z,100659.72
2022-11-19T23:38:55.880Z,100657.94
2022-11-19T23:41:22.733Z,100656.13
2022-11-19T23:43:49.559Z,100658.69
2022-11-19T23:46:18.668Z,100654.63
2022-11-19T23:48:46.721Z,100654.88
2022-11-19T23:51:17.067Z,100659.06
2022-11-19T23:53:44.087Z,100663.28
2022-11-19T23:56:11.974Z,100661.75
2022-11-19T23:58:38.825Z,100663.50
